Time;durP1;ratioP1;P1;durP2;ratioP2;P2;SDS_P1;SDS_P2;PMS_P1;PMS_P2;Temp;Humidity;BMP_temperature;BMP_pressure;BME280_temperature;BME280_humidity;BME280_pressure;Samples;Min_cycle;Max_cycle;Signal;HPM_P1;HPM_P2
2023/04/13 05:02:12;;;;;;;;;1.00;0.00;;;;;11.50;57.95;42273.03;5105370;23;1129104;-84
2023/04/13 05:04:38;;;;;;;;;0.00;0.00;;;;;11.50;57.82;41499.81;4953172;28;45585;-86
2023/04/13 05:07:04;;;;;;;;;1.00;1.00;;;;;11.47;58.32;40780.13;4951014;28;45748;-86
2023/04/13 05:09:29;;;;;;;;;0.00;0.00;;;;;11.46;58.18;41016.03;4955348;28;45503;-85
2023/04/13 05:11:56;;;;;;;;;1.00;1.00;;;;;11.04;57.92;41054.06;4940199;28;45734;-87
2023/04/13 05:14:22;;;;;;;;;0.33;0.33;;;;;11.46;57.86;40866.16;4957299;28;45782;-88
2023/04/13 05:16:47;;;;;;;;;1.00;1.00;;;;;11.25;58.08;40404.09;4956850;28;46333;-88
2023/04/13 05:19:13;;;;;;;;;0.00;0.00;;;;;11.46;58.11;40287.78;4947732;28;45470;-88
2023/04/13 05:21:44;;;;;;;;;0.00;0.00;;;;;11.37;58.20;40186.69;4954437;28;45499;-87
2023/04/13 05:24:10;;;;;;;;;2.33;0.33;;;;;10.62;58.19;40144.56;4950681;28;45531;-86
2023/04/13 05:26:47;;;;;;;;;0.00;0.00;;;;;11.38;57.89;39696.28;4956706;28;45408;-86
2023/04/13 05:29:45;;;;;;;;;1.33;0.00;;;;;11.14;58.47;39070.22;4962541;23;45814;-85
2023/04/13 05:32:20;;;;;;;;;1.33;0.00;;;;;10.35;58.22;37867.69;4856204;29;46257;-87
2023/04/13 05:37:31;;;;;;;;;0.00;0.00;;;;;9.84;58.22;37498.41;4869617;29;47271;-88
2023/04/13 05:39:59;;;;;;;;;0.00;0.00;;;;;10.77;58.41;37488.41;4875928;29;45407;-88
2023/04/13 05:42:31;;;;;;;;;0.00;0.00;;;;;10.39;58.19;38032.66;4877268;29;45920;-90
2023/04/13 05:44:56;;;;;;;;;0.00;0.00;;;;;10.87;58.50;35883.69;4871763;29;46487;-83
2023/04/13 05:47:35;;;;;;;;;1.00;0.00;;;;;11.46;58.53;36462.06;4868686;29;45476;-87
2023/04/13 05:50:01;;;;;;;;;3.67;0.00;;;;;10.10;58.40;35861.88;4876079;29;45786;-86
2023/04/13 05:52:26;;;;;;;;;0.00;0.00;;;;;10.79;58.67;35669.00;4876936;29;45601;-83
2023/04/13 05:54:52;;;;;;;;;0.00;0.00;;;;;10.74;58.64;36206.44;4876872;29;45493;-85
2023/04/13 05:57:23;;;;;;;;;1.33;0.00;;;;;11.51;58.45;35238.66;4865736;29;46563;-85
2023/04/13 05:59:50;;;;;;;;;0.00;0.00;;;;;11.28;59.13;34342.91;4874817;29;45580;-84
2023/04/13 06:02:24;;;;;;;;;0.00;0.00;;;;;11.55;58.39;34632.03;4877190;29;45665;-85
2023/04/13 06:04:52;;;;;;;;;0.00;0.00;;;;;10.93;58.72;33964.91;4869985;29;45601;-84
2023/04/13 06:07:18;;;;;;;;;5.33;5.33;;;;;11.44;58.54;32654.38;4870794;29;46269;-84
2023/04/13 06:09:43;;;;;;;;;2.00;1.00;;;;;11.64;58.76;31860.28;4920622;28;45896;-84
2023/04/13 06:12:09;;;;;;;;;3.00;0.00;;;;;11.36;58.58;31844.97;4916722;28;45649;-85
2023/04/13 06:14:35;;;;;;;;;2.00;0.33;;;;;10.93;58.86;31820.41;4926886;28;45447;-83
2023/04/13 06:17:01;;;;;;;;;5.67;4.67;;;;;11.68;58.37;31889.09;4937765;28;46829;-85
2023/04/13 06:19:26;;;;;;;;;0.00;0.00;;;;;11.15;58.83;31497.53;4938557;28;45593;-84
2023/04/13 06:21:51;;;;;;;;;1.33;0.33;;;;;10.33;58.29;31786.66;4944106;28;45448;-84
2023/04/13 06:24:17;;;;;;;;;0.00;0.00;;;;;10.70;58.63;31899.44;4948871;28;45640;-84
2023/04/13 06:26:45;;;;;;;;;0.00;0.00;;;;;9.87;58.65;32095.91;4956479;28;46441;-84
2023/04/13 06:29:11;;;;;;;;;1.33;0.00;;;;;11.12;58.78;31160.00;4956110;28;45547;-85
2023/04/13 06:31:42;;;;;;;;;0.00;0.00;;;;;10.08;58.62;30767.91;4955353;28;45500;-86
2023/04/13 06:34:08;;;;;;;;;1.00;0.00;;;;;11.71;58.98;30185.44;4951065;28;45531;-86
2023/04/13 06:36:39;;;;;;;;;0.00;0.00;;;;;11.24;58.95;29488.94;4945977;28;48041;-88
2023/04/13 06:39:04;;;;;;;;;0.00;0.00;;;;;11.39;58.68;30168.13;4956472;28;45688;-86
2023/04/13 06:41:36;;;;;;;;;0.00;0.00;;;;;10.45;58.77;29447.50;4955757;28;45752;-85
2023/04/13 06:44:03;;;;;;;;;0.00;0.00;;;;;11.76;59.16;28509.34;4951159;28;45859;-85
2023/04/13 06:46:28;;;;;;;;;0.33;0.33;;;;;11.77;58.87;28845.81;4956221;28;45730;-85
2023/04/13 06:49:01;;;;;;;;;0.67;0.00;;;;;11.80;58.96;28847.38;4950929;28;45517;-85
2023/04/13 06:51:29;;;;;;;;;1.00;0.00;;;;;10.18;58.75;28763.56;4956414;28;45499;-85
2023/04/13 06:53:54;;;;;;;;;0.00;0.00;;;;;10.78;58.84;27789.38;4955961;28;45555;-86
2023/04/13 06:56:20;;;;;;;;;0.00;0.00;;;;;10.43;58.59;27771.78;4944404;28;46986;-86
2023/04/13 06:58:45;;;;;;;;;0.00;0.00;;;;;10.37;58.32;28103.81;4943899;28;45858;-86
2023/04/13 07:01:11;;;;;;;;;1.33;0.00;;;;;10.78;58.68;27454.34;4956497;28;45382;-85
2023/04/13 07:03:36;;;;;;;;;1.00;0.00;;;;;10.67;59.09;26778.91;4938918;28;45492;-85
2023/04/13 07:08:49;;;;;;;;;0.00;0.00;;;;;11.39;58.78;27149.28;5092586;23;45421;-85
2023/04/13 07:11:14;;;;;;;;;2.00;0.00;;;;;10.98;58.45;27129.06;4955319;28;45403;-84
2023/04/13 07:13:40;;;;;;;;;0.67;0.67;;;;;11.54;58.99;26820.88;4957194;28;45393;-84
2023/04/13 07:16:10;;;;;;;;;0.00;0.00;;;;;11.28;58.67;26808.28;4955505;28;46626;-84
2023/04/13 07:21:59;;;;;;;;;0.00;0.00;;;;;12.10;58.88;26176.78;4956482;28;45551;-84
2023/04/13 07:26:56;;;;;;;;;0.00;0.00;;;;;12.17;58.89;25508.66;4952813;23;74299;-84
2023/04/13 07:29:21;;;;;;;;;0.00;0.00;;;;;11.97;58.59;25834.97;4944700;28;45477;-83
2023/04/13 07:31:50;;;;;;;;;0.00;0.00;;;;;12.17;58.60;25508.66;4937525;28;45485;-84
2023/04/13 07:34:20;;;;;;;;;0.33;0.00;;;;;12.26;58.63;24841.66;4940698;28;45548;-93
2023/04/13 07:36:46;;;;;;;;;1.00;1.00;;;;;12.31;58.62;24843.97;4940279;28;47449;-85
2023/04/13 07:39:11;;;;;;;;;0.00;0.00;;;;;12.27;58.48;24506.31;4939657;28;45617;-85
2023/04/13 07:41:36;;;;;;;;;0.67;0.67;;;;;12.40;58.60;24176.84;4940333;28;45447;-84
2023/04/13 07:44:03;;;;;;;;;0.00;0.00;;;;;12.45;58.32;24514.75;4971393;28;45460;-84
2023/04/13 07:46:29;;;;;;;;;0.00;0.00;;;;;12.12;58.62;23828.78;4939601;28;46611;-83
2023/04/13 07:48:55;;;;;;;;;2.00;0.00;;;;;12.57;58.35;23512.69;4938852;28;45704;-85
2023/04/13 07:51:23;;;;;;;;;2.67;0.00;;;;;12.63;58.27;23515.53;4938424;28;45450;-85
2023/04/13 07:53:51;;;;;;;;;0.00;0.00;;;;;12.27;58.49;23499.72;4933756;28;45513;-85
2023/04/13 07:56:16;;;;;;;;;27.33;25.33;;;;;12.07;58.16;23156.03;4920824;28;46411;-84
2023/04/13 07:58:42;;;;;;;;;3.00;0.33;;;;;12.50;58.26;22838.47;4903967;28;45855;-84
2023/04/13 08:01:08;;;;;;;;;0.67;0.67;;;;;12.62;58.37;22843.81;4920814;28;45537;-85
2023/04/13 08:03:34;;;;;;;;;0.00;0.00;;;;;12.93;58.22;22856.44;4921369;28;45420;-84
2023/04/13 08:05:59;;;;;;;;;0.67;0.00;;;;;12.74;57.75;22848.53;4920580;28;47199;-86
2023/04/13 08:08:53;;;;;;;;;1.67;0.00;;;;;13.00;58.04;22859.44;4933428;28;45509;-85
2023/04/13 08:11:19;;;;;;;;;0.00;0.00;;;;;11.97;57.85;23151.69;4921024;28;45431;-85
2023/04/13 08:17:05;;;;;;;;;0.00;0.00;;;;;12.52;57.77;23175.09;4911994;28;46294;-85
2023/04/13 08:19:34;;;;;;;;;0.00;0.00;;;;;13.10;57.55;23535.75;4914496;28;45485;-84
2023/04/13 08:30:00;;;;;;;;;0.00;0.00;;;;;13.22;57.39;24548.72;4898862;29;45463;-85
2023/04/13 08:32:37;;;;;;;;;1.67;1.00;;;;;11.73;57.15;24147.34;4898399;29;45534;-85
2023/04/13 08:35:53;;;;;;;;;1.33;1.33;;;;;12.34;57.19;23838.34;4898282;29;45416;-85
2023/04/13 08:44:19;;;;;;;;;1.00;0.33;;;;;13.03;57.23;23196.59;5245160;23;45543;-83
2023/04/13 08:50:33;;;;;;;;;0.00;0.00;;;;;12.15;56.66;23494.69;4917505;28;45423;-85
2023/04/13 09:00:15;;;;;;;;;0.33;0.00;;;;;12.81;56.39;23858.81;4898407;28;45465;-84
2023/04/13 09:03:19;;;;;;;;;0.00;0.00;;;;;14.00;56.29;23910.47;4901261;29;45571;-83
2023/04/13 09:29:04;;;;;;;;;0.00;0.00;;;;;14.65;53.62;30006.25;5229240;23;46684;-96
2023/04/13 09:31:33;;;;;;;;;0.00;0.00;;;;;14.89;54.22;27320.34;4907104;28;48655;-91
2023/04/13 09:33:58;;;;;;;;;0.00;0.00;;;;;14.52;54.00;27976.13;4921301;28;45565;-95
2023/04/13 09:36:27;;;;;;;;;0.50;0.50;;;;;15.08;54.00;27667.00;4904408;28;45463;-91
2023/04/13 09:38:54;;;;;;;;;1.00;0.00;;;;;15.34;53.82;27005.00;4909056;28;45630;-92
2023/04/13 09:41:39;;;;;;;;;0.00;0.00;;;;;15.18;53.61;26997.28;4903996;28;47312;-94
2023/04/13 09:44:16;;;;;;;;;0.00;0.00;;;;;15.87;53.06;26355.19;4903616;28;45468;-91
2023/04/13 09:46:43;;;;;;;;;0.00;0.00;;;;;15.80;53.19;25339.03;4898366;29;45506;-91
2023/04/13 09:49:08;;;;;;;;;0.00;0.00;;;;;16.38;52.51;25365.56;4911882;28;45438;-93
2023/04/13 09:51:38;;;;;;;;;0.00;0.00;;;;;17.18;52.35;22020.75;4915783;28;48260;-92
2023/04/13 09:54:05;;;;;;;;;0.00;0.00;;;;;17.41;51.18;22706.38;4905158;28;45441;-90
2023/04/13 09:56:45;;;;;;;;;0.33;0.00;;;;;18.33;50.41;24777.63;4905143;28;45387;-93
2023/04/13 09:59:12;;;;;;;;;1.00;0.00;;;;;18.88;47.76;33163.13;4923978;28;45628;-94
2023/04/13 10:01:37;;;;;;;;;0.33;0.00;;;;;19.07;47.35;38046.03;4904206;28;47576;-92
2023/04/13 10:04:07;;;;;;;;;0.00;0.00;;;;;18.90;45.32;49577.13;4919878;28;45494;-92
2023/04/13 10:06:41;;;;;;;;;0.00;0.00;;;;;19.10;45.55;50551.75;4902359;28;45527;-92
2023/04/13 10:09:08;;;;;;;;;1.00;0.00;;;;;19.12;45.62;51540.88;4902422;28;45560;-92
2023/04/13 10:11:43;;;;;;;;;0.00;0.00;;;;;19.16;45.47;52529.91;4921510;28;46432;-91
2023/04/13 10:14:41;;;;;;;;;0.00;0.00;;;;;19.42;45.39;52328.06;4925284;28;45350;-96
2023/04/13 10:20:12;;;;;;;;;2.00;0.00;;;;;19.93;44.80;53079.47;4947393;23;45447;-93
2023/04/13 10:22:48;;;;;;;;;0.00;0.00;;;;;20.73;44.64;52565.59;4941503;28;46430;-92
2023/04/13 10:31:17;;;;;;;;;0.00;0.00;;;;;20.32;41.61;61008.88;5327852;23;45901;-92
2023/04/13 10:40:47;;;;;;;;;0.00;0.00;;;;;21.17;39.81;65122.03;4977588;23;47124;-92
2023/04/13 10:46:11;;;;;;;;;1.00;0.00;;;;;21.29;38.96;67013.78;4969447;23;46318;-93
2023/04/13 10:48:37;;;;;;;;;0.00;0.00;;;;;21.63;39.92;66729.75;4965652;28;46150;-94
2023/04/13 10:51:02;;;;;;;;;0.00;0.00;;;;;21.66;40.02;66802.56;4972406;28;45572;-91
2023/04/13 10:53:29;;;;;;;;;0.00;0.00;;;;;21.64;38.49;67589.03;4977518;28;45691;-90
2023/04/13 10:55:58;;;;;;;;;0.00;0.00;;;;;21.13;37.22;68312.53;4979913;28;47261;-92
2023/04/13 10:58:26;;;;;;;;;1.00;0.00;;;;;20.80;37.47;68497.91;4973489;28;45413;-91
2023/04/13 11:00:53;;;;;;;;;5.33;5.33;;;;;20.33;37.01;68677.22;4983010;28;45598;-90
2023/04/13 11:03:18;;;;;;;;;0.00;0.00;;;;;19.61;37.01;68710.28;4963947;28;45570;-91
2023/04/13 11:05:46;;;;;;;;;0.00;0.00;;;;;18.76;37.61;68699.72;4976518;28;46964;-87
2023/04/13 11:08:19;;;;;;;;;0.00;0.00;;;;;18.90;37.68;68764.00;4988424;28;46051;-88
2023/04/13 11:10:55;;;;;;;;;0.00;0.00;;;;;18.46;38.18;68678.72;4990696;28;45595;-88
2023/04/13 11:13:24;;;;;;;;;0.00;0.00;;;;;18.09;39.24;68729.69;4979688;28;45918;-87
2023/04/13 11:15:50;;;;;;;;;0.67;0.00;;;;;17.66;39.70;68561.59;4963759;28;46857;-88
2023/04/13 11:18:25;;;;;;;;;1.00;1.00;;;;;17.60;39.93;68530.44;4979796;28;45423;-88
2023/04/13 11:20:50;;;;;;;;;0.00;0.00;;;;;17.77;40.28;68432.28;4979886;28;45761;-89
2023/04/13 11:23:17;;;;;;;;;0.00;0.00;;;;;18.11;40.17;68475.19;4961992;28;45579;-88
2023/04/13 11:26:00;;;;;;;;;0.00;0.00;;;;;18.75;40.56;68385.72;4962436;28;48499;-88
2023/04/13 11:28:38;;;;;;;;;0.00;0.00;;;;;18.74;40.56;68354.50;4979396;28;45506;-88
2023/04/13 11:31:05;;;;;;;;;0.00;0.00;;;;;19.26;40.17;68310.16;4978321;28;45594;-88
2023/04/13 11:33:32;;;;;;;;;1.00;0.00;;;;;19.35;39.76;68387.22;4980022;28;45494;-86
2023/04/13 11:35:59;;;;;;;;;0.00;0.00;;;;;19.19;39.98;68385.59;4982014;28;46000;-86
2023/04/13 11:38:25;;;;;;;;;0.00;0.00;;;;;19.36;39.83;68404.47;4980810;28;45636;-87
2023/04/13 11:40:51;;;;;;;;;1.00;1.00;;;;;19.39;40.20;68418.75;4979609;28;45388;-86
2023/04/13 11:43:18;;;;;;;;;0.00;0.00;;;;;19.35;40.65;68363.09;4979163;28;45638;-86
2023/04/13 11:45:46;;;;;;;;;0.00;0.00;;;;;19.40;40.05;68450.00;4961389;28;48705;-87
2023/04/13 11:48:12;;;;;;;;;0.00;0.00;;;;;19.54;40.27;68368.81;4979061;28;45899;-86
2023/04/13 11:50:38;;;;;;;;;0.00;0.00;;;;;19.68;39.87;68430.34;4979332;28;45411;-85
2023/04/13 11:53:04;;;;;;;;;0.33;0.33;;;;;19.01;37.58;68559.97;4979528;28;45518;-89
2023/04/13 11:55:32;;;;;;;;;0.00;0.00;;;;;19.29;38.44;68591.91;4961356;28;47468;-89
2023/04/13 11:57:57;;;;;;;;;0.00;0.00;;;;;19.38;38.00;68712.50;4961407;28;45478;-86
2023/04/13 12:00:26;;;;;;;;;0.00;0.00;;;;;19.29;37.77;68704.53;4978923;28;45983;-87
2023/04/13 12:02:54;;;;;;;;;0.00;0.00;;;;;19.28;38.33;68716.75;4979589;28;45728;-87
2023/04/13 12:05:24;;;;;;;;;0.00;0.00;;;;;18.95;38.22;68622.53;4978845;28;46191;-87
2023/04/13 12:07:54;;;;;;;;;0.00;0.00;;;;;18.21;38.25;68609.53;4961077;28;45698;-87
2023/04/13 12:10:24;;;;;;;;;0.00;0.00;;;;;18.94;38.36;68643.41;4979018;28;45629;-89
2023/04/13 12:13:10;;;;;;;;;1.00;0.00;;;;;19.24;38.78;68691.16;4979242;28;45435;-88
2023/04/13 12:15:36;;;;;;;;;0.00;0.00;;;;;19.05;38.81;68730.88;4961473;28;47569;-88
2023/04/13 12:18:03;;;;;;;;;0.00;0.00;;;;;19.03;38.98;68581.09;4978180;28;45487;-87
2023/04/13 12:20:38;;;;;;;;;0.00;0.00;;;;;18.94;39.16;68544.25;4978639;28;45508;-87
2023/04/13 12:23:24;;;;;;;;;0.00;0.00;;;;;19.91;38.63;68636.75;4978823;28;45428;-87
2023/04/13 12:26:03;;;;;;;;;0.00;0.00;;;;;19.66;39.06;68647.94;4978456;28;46195;-87
2023/04/13 12:28:34;;;;;;;;;0.00;0.00;;;;;19.98;38.20;68698.69;4978256;28;45552;-87
2023/04/13 12:31:08;;;;;;;;;0.00;0.00;;;;;20.39;38.73;68679.56;4978758;28;45466;-87
2023/04/13 12:33:33;;;;;;;;;1.00;1.00;;;;;20.31;37.79;68760.78;4961402;28;45456;-87
2023/04/13 12:35:59;;;;;;;;;0.00;0.00;;;;;19.93;38.21;68771.19;4978228;28;46078;-87
2023/04/13 12:38:26;;;;;;;;;2.00;0.00;;;;;19.98;39.96;68596.72;4978435;28;45341;-87
2023/04/13 12:40:58;;;;;;;;;0.00;0.00;;;;;19.58;42.22;68154.19;4978465;28;45456;-90
2023/04/13 12:43:25;;;;;;;;;1.33;0.00;;;;;18.96;46.08;64587.56;4978900;28;45531;-89
2023/04/13 12:45:51;;;;;;;;;0.00;0.00;;;;;19.04;48.65;59715.63;4978445;28;46288;-90
2023/04/13 12:48:17;;;;;;;;;0.00;0.00;;;;;18.81;49.09;58375.25;4960721;28;45633;-86
2023/04/13 12:50:42;;;;;;;;;7.67;7.67;;;;;18.85;49.78;56931.19;4978090;28;45511;-86
2023/04/13 12:53:08;;;;;;;;;1.00;1.00;;;;;18.84;50.04;55407.38;4978559;28;45567;-87
2023/04/13 12:55:33;;;;;;;;;0.00;0.00;;;;;18.82;50.38;54887.47;4960490;28;48153;-85
2023/04/13 12:57:58;;;;;;;;;0.00;0.00;;;;;18.73;50.31;53552.84;4977988;28;45505;-85
2023/04/13 13:00:24;;;;;;;;;0.00;0.00;;;;;18.56;50.88;50428.44;4978104;28;45574;-87
2023/04/13 13:02:51;;;;;;;;;1.00;0.00;;;;;18.91;50.41;50186.00;4960722;28;45558;-86
2023/04/13 13:05:17;;;;;;;;;0.00;0.00;;;;;19.05;51.31;48472.72;4977627;28;46329;-88
2023/04/13 13:07:42;;;;;;;;;2.00;0.00;;;;;18.69;50.55;48535.81;4978061;28;45461;-87
2023/04/13 13:10:08;;;;;;;;;0.00;0.00;;;;;19.31;49.64;50207.38;4977785;28;45554;-86
2023/04/13 13:12:34;;;;;;;;;0.00;0.00;;;;;19.65;49.09;51798.78;4978352;28;45572;-86
2023/04/13 13:15:00;;;;;;;;;0.00;0.00;;;;;19.47;47.85;53248.84;4977907;28;45398;-88
2023/04/13 13:17:27;;;;;;;;;0.00;0.00;;;;;20.09;47.20;55322.38;4960039;28;45656;-88
2023/04/13 13:19:53;;;;;;;;;0.00;0.00;;;;;19.78;45.49;58077.75;4959993;28;45723;-89
2023/04/13 13:22:19;;;;;;;;;0.00;0.00;;;;;20.29;45.33;59387.19;4978082;28;45520;-88
2023/04/13 13:24:45;;;;;;;;;0.00;0.00;;;;;20.68;45.09;59712.72;4977680;28;46116;-87
2023/04/13 13:27:10;;;;;;;;;0.00;0.00;;;;;20.67;43.61;61350.56;5010805;23;45583;-92
2023/04/13 13:29:36;;;;;;;;;0.00;0.00;;;;;20.75;42.93;63244.72;4997621;28;45436;-91
2023/04/13 13:32:02;;;;;;;;;0.00;0.00;;;;;20.65;42.39;64192.34;4999021;28;45519;-92
2023/04/13 13:34:27;;;;;;;;;0.00;0.00;;;;;20.52;40.78;66070.63;4998967;28;46082;-92
2023/04/13 13:36:53;;;;;;;;;0.00;0.00;;;;;20.29;41.08;66364.34;4998612;28;45464;-92
2023/04/13 13:39:20;;;;;;;;;0.00;0.00;;;;;20.13;41.54;66480.72;4998360;28;46074;-91
2023/04/13 13:41:45;;;;;;;;;0.00;0.00;;;;;19.55;41.81;66568.69;4998869;28;45380;-92
2023/04/13 13:44:11;;;;;;;;;0.00;0.00;;;;;19.40;41.46;66830.19;4998346;28;46110;-91
2023/04/13 13:46:36;;;;;;;;;0.33;0.00;;;;;19.33;41.43;67061.19;4998172;28;48338;-92
2023/04/13 13:49:01;;;;;;;;;1.00;1.00;;;;;19.13;41.75;67099.69;4994343;28;45873;-95
2023/04/13 13:51:27;;;;;;;;;0.00;0.00;;;;;19.20;42.27;67030.09;4997203;28;45543;-96
2023/04/13 13:53:52;;;;;;;;;0.00;0.00;;;;;18.91;41.87;67153.00;4994352;28;54218;-95
2023/04/13 13:56:18;;;;;;;;;0.00;0.00;;;;;19.10;42.22;67155.72;4988733;28;44735;-94
2023/04/13 13:58:43;;;;;;;;;0.00;0.00;;;;;19.08;42.12;67107.28;4972303;28;45429;-95
2023/04/13 14:01:09;;;;;;;;;0.00;0.00;;;;;18.89;41.74;67278.66;4991378;28;45414;-95
2023/04/13 14:03:35;;;;;;;;;0.00;0.00;;;;;18.91;41.55;67351.22;4997480;28;45379;-96
2023/04/13 14:06:01;;;;;;;;;0.00;0.00;;;;;18.82;41.89;67335.38;5003167;28;44777;-95
2023/04/13 14:08:26;;;;;;;;;0.00;0.00;;;;;18.56;41.97;67317.00;5005976;28;44796;-96
2023/04/13 14:10:52;;;;;;;;;0.00;0.00;;;;;18.41;40.98;67401.28;5019685;23;44890;-92
2023/04/13 14:13:17;;;;;;;;;0.00;0.00;;;;;18.12;41.78;67392.16;4995663;28;45448;-91
2023/04/13 14:15:42;;;;;;;;;0.00;0.00;;;;;18.28;41.41;67418.81;4978997;28;47235;-91
2023/04/13 14:18:08;;;;;;;;;0.00;0.00;;;;;17.96;41.94;67358.06;4996588;28;45424;-90
2023/04/13 14:20:34;;;;;;;;;0.00;0.00;;;;;18.77;42.38;67496.19;4996822;28;45537;-91
2023/04/13 14:22:59;;;;;;;;;0.00;0.00;;;;;18.29;42.12;67440.81;4979000;28;47103;-92
2023/04/13 14:25:24;;;;;;;;;0.00;0.00;;;;;18.22;42.46;67411.28;4996672;28;45378;-92
2023/04/13 14:27:50;;;;;;;;;0.00;0.00;;;;;18.21;42.23;67394.03;4978974;28;45715;-91
2023/04/13 14:30:16;;;;;;;;;0.00;0.00;;;;;18.04;42.16;67473.78;4979384;28;45612;-92
2023/04/13 14:32:42;;;;;;;;;0.00;0.00;;;;;18.24;41.69;67572.06;4996170;28;46176;-91
2023/04/13 14:35:08;;;;;;;;;1.00;0.00;;;;;18.29;41.93;67484.22;4996612;28;45407;-91
2023/04/13 14:37:33;;;;;;;;;0.00;0.00;;;;;18.53;42.38;67484.28;4996732;28;45928;-90
2023/04/13 14:39:58;;;;;;;;;0.00;0.00;;;;;18.10;42.61;67462.66;4996293;28;45434;-91
2023/04/13 14:42:24;;;;;;;;;0.00;0.00;;;;;18.28;42.44;67515.16;4996417;28;46576;-89
2023/04/13 14:44:52;;;;;;;;;0.00;0.00;;;;;17.61;42.63;67454.22;4978602;28;45574;-91
2023/04/13 14:47:18;;;;;;;;;0.00;0.00;;;;;18.37;42.82;67474.22;4996357;28;45501;-91
2023/04/13 14:49:43;;;;;;;;;0.00;0.00;;;;;17.88;42.17;67442.94;4980832;28;45760;-91
2023/04/13 14:52:09;;;;;;;;;1.00;0.00;;;;;18.43;42.34;67526.72;4976630;28;45520;-91
2023/04/13 14:54:34;;;;;;;;;0.00;0.00;;;;;18.12;42.29;67609.47;4976340;28;45373;-92
2023/04/13 14:57:01;;;;;;;;;0.00;0.00;;;;;18.07;41.87;67622.31;4959190;28;45436;-91
2023/04/13 14:59:26;;;;;;;;;0.00;0.00;;;;;18.38;42.00;67641.34;4976825;28;45701;-91
2023/04/13 15:01:52;;;;;;;;;0.00;0.00;;;;;18.38;42.46;67651.44;4976229;28;45823;-91
2023/04/13 15:04:18;;;;;;;;;1.67;1.67;;;;;17.98;42.09;67589.84;4976462;28;45483;-91
2023/04/13 15:06:46;;;;;;;;;1.00;1.00;;;;;17.64;41.96;67557.19;4976726;28;45529;-91
2023/04/13 15:09:11;;;;;;;;;0.00;0.00;;;;;18.33;42.11;67692.28;4976619;28;45441;-92
2023/04/13 15:11:37;;;;;;;;;0.00;0.00;;;;;17.70;42.10;67542.84;4955322;28;47425;-90
2023/04/13 15:14:02;;;;;;;;;0.00;0.00;;;;;18.26;42.54;67667.44;4973547;28;45530;-91
2023/04/13 15:16:28;;;;;;;;;0.00;0.00;;;;;18.27;41.99;67738.22;4976323;28;45428;-91
2023/04/13 15:18:53;;;;;;;;;0.00;0.00;;;;;18.22;42.42;67603.91;4976633;28;45513;-91
2023/04/13 15:21:19;;;;;;;;;0.00;0.00;;;;;18.06;41.27;67752.25;4975891;28;46131;-91
2023/04/13 15:23:44;;;;;;;;;0.33;0.00;;;;;18.18;42.06;67663.47;4958789;28;45766;-91
2023/04/13 15:26:17;;;;;;;;;0.00;0.00;;;;;18.24;41.59;67713.28;4959044;28;45516;-88
2023/04/13 15:28:42;;;;;;;;;0.00;0.00;;;;;18.06;41.52;67773.06;4976341;28;45479;-87
2023/04/13 15:31:07;;;;;;;;;0.00;0.00;;;;;18.18;41.78;67775.84;4970699;28;46213;-88
2023/04/13 15:33:33;;;;;;;;;0.00;0.00;;;;;17.98;41.51;67713.47;4974519;28;45455;-88
2023/04/13 15:35:59;;;;;;;;;0.00;0.00;;;;;17.91;41.93;67769.44;4976037;28;45459;-88
2023/04/13 15:38:24;;;;;;;;;0.00;0.00;;;;;18.01;42.22;67804.66;4975954;28;45360;-87
2023/04/13 15:40:50;;;;;;;;;1.00;0.00;;;;;17.97;42.32;67771.13;4975719;28;45756;-88
2023/04/13 15:43:15;;;;;;;;;1.00;0.00;;;;;18.30;41.93;67769.06;4975741;28;45446;-89
2023/04/13 15:45:40;;;;;;;;;0.00;0.00;;;;;18.00;41.95;67790.69;4975985;28;45316;-91
2023/04/13 15:48:06;;;;;;;;;0.00;0.00;;;;;18.24;41.26;67857.78;4989167;28;45498;-88
2023/04/13 15:50:31;;;;;;;;;0.00;0.00;;;;;18.12;40.11;68053.59;4977594;28;45870;-89
2023/04/13 15:52:57;;;;;;;;;0.00;0.00;;;;;18.23;40.16;68103.41;5011708;28;45795;-89
2023/04/13 15:55:22;;;;;;;;;0.00;0.00;;;;;18.21;40.22;68122.44;4979220;28;45547;-89
2023/04/13 15:57:49;;;;;;;;;0.00;0.00;;;;;18.14;40.48;68184.38;4980546;28;45709;-88
2023/04/13 16:00:15;;;;;;;;;0.00;0.00;;;;;18.22;39.98;68198.56;4988193;28;46510;-88
2023/04/13 16:02:40;;;;;;;;;0.00;0.00;;;;;18.00;40.44;68264.19;5012810;28;45880;-88
2023/04/13 16:05:06;;;;;;;;;0.00;0.00;;;;;18.18;39.96;68278.91;5000714;28;45419;-88
2023/04/13 16:07:32;;;;;;;;;0.00;0.00;;;;;18.13;39.90;68303.03;5012196;28;45487;-89
2023/04/13 16:09:57;;;;;;;;;0.00;0.00;;;;;17.86;39.98;68218.28;5006538;28;46425;-89
2023/04/13 16:12:30;;;;;;;;;0.00;0.00;;;;;18.03;39.54;68305.19;5004099;28;45457;-89
2023/04/13 16:14:58;;;;;;;;;0.00;0.00;;;;;17.99;38.08;68422.97;4979563;28;45475;-88
2023/04/13 16:17:30;;;;;;;;;0.00;0.00;;;;;17.95;38.60;68475.00;4991957;28;45834;-88
2023/04/13 16:22:45;;;;;;;;;0.00;0.00;;;;;17.75;39.74;68448.63;4998374;28;45634;-88
2023/04/13 16:25:14;;;;;;;;;0.00;0.00;;;;;17.58;39.74;68381.59;4987232;28;45456;-88
2023/04/13 16:27:40;;;;;;;;;0.00;0.00;;;;;17.66;39.95;68395.81;4986374;28;45616;-88
2023/04/13 16:30:07;;;;;;;;;0.00;0.00;;;;;17.77;39.54;68448.94;4984698;28;45493;-89
2023/04/13 16:32:32;;;;;;;;;0.00;0.00;;;;;17.72;39.68;68432.91;4995293;28;45766;-89
2023/04/13 16:34:58;;;;;;;;;0.00;0.00;;;;;17.64;39.52;68436.22;4986352;28;45586;-88
2023/04/13 16:37:23;;;;;;;;;0.00;0.00;;;;;17.57;40.31;68436.56;4982473;28;45535;-88
2023/04/13 16:39:49;;;;;;;;;0.00;0.00;;;;;17.36;40.12;68409.06;4989140;28;45524;-90
2023/04/13 16:42:17;;;;;;;;;0.00;0.00;;;;;17.67;39.96;68427.00;4987326;28;45635;-89
2023/04/13 16:44:43;;;;;;;;;1.00;0.00;;;;;17.22;39.93;68388.34;4983034;28;45612;-90
2023/04/13 16:47:09;;;;;;;;;0.00;0.00;;;;;17.63;40.08;68441.00;4995280;28;45534;-90
2023/04/13 16:49:34;;;;;;;;;0.00;0.00;;;;;17.49;39.88;68523.34;5000642;28;46254;-90
2023/04/13 16:52:00;;;;;;;;;0.00;0.00;;;;;17.59;40.07;68411.59;4982810;28;45809;-90
2023/04/13 16:54:26;;;;;;;;;0.33;0.00;;;;;17.56;39.80;68402.69;4975436;28;45555;-89
2023/04/13 16:56:51;;;;;;;;;0.00;0.00;;;;;17.17;39.90;68357.81;4986363;28;45513;-92
2023/04/13 16:59:17;;;;;;;;;0.00;0.00;;;;;17.49;39.90;68488.59;4999075;28;45867;-91
2023/04/13 17:01:42;;;;;;;;;0.00;0.00;;;;;17.16;39.68;68362.56;4993245;28;45518;-90
2023/04/13 17:04:07;;;;;;;;;0.00;0.00;;;;;17.16;40.44;68343.88;4997984;28;45557;-90
2023/04/13 17:06:36;;;;;;;;;0.00;0.00;;;;;17.47;39.88;68424.75;4993100;28;45417;-91
2023/04/13 17:09:01;;;;;;;;;0.00;0.00;;;;;17.24;39.71;68379.44;4980026;28;47375;-91
2023/04/13 17:11:27;;;;;;;;;1.00;0.00;;;;;17.34;39.60;68433.44;5005562;28;45436;-91
2023/04/13 17:13:52;;;;;;;;;0.00;0.00;;;;;17.43;39.42;68466.03;5007851;28;45348;-91
2023/04/13 17:21:18;;;;;;;;;0.00;0.00;;;;;16.09;39.36;68494.59;4975831;23;71854;-87
2023/04/13 17:23:52;;;;;;;;;0.00;0.00;;;;;16.94;38.52;68435.97;4978730;28;45531;-87
2023/04/13 17:28:49;;;;;;;;;0.00;0.00;;;;;17.30;39.00;68544.19;4981313;23;74048;-87
2023/04/13 17:31:15;;;;;;;;;0.00;0.00;;;;;17.18;38.83;68538.00;4974925;28;46102;-88
2023/04/13 17:33:40;;;;;;;;;1.00;0.00;;;;;17.16;39.74;68504.19;4966219;28;45483;-88
2023/04/13 17:36:06;;;;;;;;;0.00;0.00;;;;;17.08;39.35;68562.06;4971217;28;45451;-88
2023/04/13 17:38:31;;;;;;;;;0.00;0.00;;;;;17.10;39.22;68518.44;4965951;28;48283;-89
2023/04/13 17:40:56;;;;;;;;;0.00;0.00;;;;;17.04;38.48;68509.25;4973595;28;45533;-90
2023/04/13 17:43:22;;;;;;;;;0.00;0.00;;;;;17.12;37.90;68675.78;4982864;28;45506;-87
2023/04/13 17:45:47;;;;;;;;;0.00;0.00;;;;;17.20;38.09;68604.50;4966609;28;45466;-88
2023/04/13 17:48:12;;;;;;;;;0.00;0.00;;;;;16.92;38.31;68543.13;4985629;28;45807;-87
2023/04/13 17:50:38;;;;;;;;;0.00;0.00;;;;;16.88;38.45;68546.41;4976230;28;45659;-88
2023/04/13 17:53:03;;;;;;;;;0.00;0.00;;;;;17.07;38.71;68571.59;4994858;28;45724;-92
2023/04/13 17:55:29;;;;;;;;;0.67;0.00;;;;;17.04;38.55;68600.09;4984139;23;45672;-92
2023/04/13 17:57:54;;;;;;;;;0.00;0.00;;;;;16.97;38.89;68597.13;4985745;28;45555;-92
2023/04/13 18:00:20;;;;;;;;;2.33;0.00;;;;;16.96;39.27;68555.28;4968591;28;46094;-96
2023/04/13 18:02:49;;;;;;;;;0.00;0.00;;;;;16.91;38.90;68571.31;4987932;28;45424;-93
2023/04/13 18:05:16;;;;;;;;;0.00;0.00;;;;;16.88;38.72;68613.16;4988037;28;45821;-93
2023/04/13 18:07:42;;;;;;;;;0.00;0.00;;;;;16.84;39.27;68528.31;4980383;28;45656;-95
2023/04/13 18:10:08;;;;;;;;;0.67;0.00;;;;;16.82;39.55;68507.25;4983016;28;52674;-88